»·PEaware :: N41G KRDD-KRNO

N41G :: KRDD-KRNO

FLIGHT INFORMATION

Flight Status: Arrived
Operator: Privately registered:
United States
More flights under this callsign
Pilot: Chuck O. (4337)
Aircraft: BEECH AIRCRAFT BONANZA
(BE35)
More flights by this aircraft type
Origin: KRDD Redding Mun
United States
Destination: KRNO Reno/Tahoe Intl
United States
More flights between these airports :: More routes between these airports
Route: +RBL V332 MRGGO V200 TRUCK
File this flight plan on PilotEdge
Remarks: 13000 AFTER MRGGO
Altitude:
(Current/Filed)
9,000ft
Speed:
(Current/Filed)
160kts
Departed: 08-Nov-18 09:50 AM
Arrived: 08-Nov-18 11:27 AM
Distance/Time
Traveled:
131nm/1:37
Distance/Time
To Go:
Arrived

Flight Plot

Page will automatically refresh every two minutes.

Flight plan parsing failed; only flown route is shown


Map Options




Map Legend


Flown Route
Filed Route
Departure Airport
Arrival Airport
Navaid (VOR, NDB)
Fix

Horizontal Profiles

Position Reports

Time Latitude Longitude Heading Altitude Ground
Speed
08-Nov-18 09:35 40.509917 -122.298081 180 505ft 0kts
08-Nov-18 09:36 40.509914 -122.298081 180 505ft 0kts
08-Nov-18 09:37 40.509911 -122.298081 180 505ft 0kts
08-Nov-18 09:38 40.509908 -122.298081 180 505ft 0kts
08-Nov-18 09:39 40.509905 -122.298081 180 505ft 0kts
08-Nov-18 09:40 40.509902 -122.298081 180 505ft 0kts
08-Nov-18 09:41 40.509899 -122.298081 180 505ft 0kts
08-Nov-18 09:42 40.509896 -122.298081 180 505ft 0kts
08-Nov-18 09:43 40.509894 -122.298081 180 505ft 0kts
08-Nov-18 09:44 40.509891 -122.298082 180 505ft 0kts
08-Nov-18 09:45 40.509888 -122.298082 180 505ft 0kts
08-Nov-18 09:46 40.509885 -122.298082 180 505ft 0kts
08-Nov-18 09:47 40.509399 -122.298131 165 505ft 0kts
08-Nov-18 09:48 40.508771 -122.298345 187 505ft 0kts
08-Nov-18 09:49 40.508766 -122.298346 187 505ft 0kts
08-Nov-18 09:50 40.503626 -122.298162 160 505ft 22kts
08-Nov-18 09:51 40.501623 -122.295996 128 505ft 0kts
08-Nov-18 09:52 40.501618 -122.295989 129 505ft 1kts
08-Nov-18 09:53 40.504421 -122.294926 0 506ft 58kts
08-Nov-18 09:54 40.514212 -122.295800 279 505ft 0kts
08-Nov-18 09:55 40.514169 -122.296009 248 505ft 9kts
08-Nov-18 09:56 40.505552 -122.296370 184 505ft 56kts
08-Nov-18 09:57 40.501687 -122.296376 136 505ft 0kts
08-Nov-18 09:58 40.501463 -122.295962 119 505ft 0kts
08-Nov-18 09:59 40.501620 -122.294962 1 505ft 27kts
08-Nov-18 10:00 40.524294 -122.296688 357 1093ft 110kts
08-Nov-18 10:01 40.556399 -122.299230 357 2068ft 117kts
08-Nov-18 10:02 40.589267 -122.302724 357 3048ft 116kts
08-Nov-18 10:03 40.620424 -122.307114 357 4401ft 104kts
08-Nov-18 10:04 40.640019 -122.299529 108 5876ft 91kts
08-Nov-18 10:05 40.626233 -122.273943 175 6999ft 103kts
08-Nov-18 10:06 40.593534 -122.273516 172 7523ft 133kts
08-Nov-18 10:07 40.555901 -122.270887 171 8096ft 135kts
08-Nov-18 10:08 40.518027 -122.268025 172 8822ft 136kts
08-Nov-18 10:09 40.476123 -122.264833 172 9003ft 161kts
08-Nov-18 10:10 40.430393 -122.261395 173 9004ft 166kts
08-Nov-18 10:11 40.383858 -122.257873 173 8995ft 168kts
08-Nov-18 10:12 40.337202 -122.254335 173 8992ft 168kts
08-Nov-18 10:13 40.290256 -122.250787 173 8987ft 168kts
08-Nov-18 10:14 40.243514 -122.247259 172 8996ft 167kts
08-Nov-18 10:15 40.197315 -122.243768 173 8997ft 165kts
08-Nov-18 10:16 40.151448 -122.240308 173 8996ft 164kts
08-Nov-18 10:17 40.105225 -122.236742 170 9001ft 169kts
08-Nov-18 10:18 40.069085 -122.203008 136 8994ft 159kts
08-Nov-18 10:19 40.035402 -122.165777 135 8999ft 157kts
08-Nov-18 10:20 40.001914 -122.128912 137 8980ft 159kts
08-Nov-18 10:21 39.968503 -122.091846 135 8989ft 157kts
08-Nov-18 10:22 39.935111 -122.054843 135 8982ft 159kts
08-Nov-18 10:23 39.901708 -122.017964 135 8969ft 156kts
08-Nov-18 10:24 39.868842 -121.981763 135 8998ft 154kts
08-Nov-18 10:25 39.835825 -121.945439 135 8984ft 155kts
08-Nov-18 10:26 39.808293 -121.915182 135 8979ft 155kts
08-Nov-18 10:27 39.769707 -121.872831 135 8978ft 155kts
08-Nov-18 10:28 39.742282 -121.842753 135 8983ft 155kts
08-Nov-18 10:29 39.704037 -121.800923 136 8983ft 153kts
08-Nov-18 10:30 39.676718 -121.771032 136 8983ft 154kts
08-Nov-18 10:31 39.638294 -121.729040 136 8979ft 154kts
08-Nov-18 10:32 39.611883 -121.700257 134 9431ft 142kts
08-Nov-18 10:33 39.577033 -121.662181 134 9989ft 139kts
08-Nov-18 10:34 39.552848 -121.635889 132 10312ft 133kts
08-Nov-18 10:35 39.524743 -121.605343 131 10684ft 131kts
08-Nov-18 10:36 39.496643 -121.574829 132 10954ft 135kts
08-Nov-18 10:37 39.465573 -121.541033 133 10968ft 159kts
08-Nov-18 10:38 39.430632 -121.503316 133 10953ft 159kts
08-Nov-18 10:39 39.397014 -121.466936 133 10944ft 156kts
08-Nov-18 10:40 39.363368 -121.431119 134 10931ft 156kts
08-Nov-18 10:41 39.330193 -121.394862 133 10916ft 156kts
08-Nov-18 10:42 39.296937 -121.358937 134 10905ft 156kts
08-Nov-18 10:43 39.263556 -121.322996 133 10893ft 156kts
08-Nov-18 10:44 39.230254 -121.286886 128 10887ft 154kts
08-Nov-18 10:45 39.229454 -121.243499 71 11317ft 123kts
08-Nov-18 10:46 39.237765 -121.200524 71 11556ft 123kts
08-Nov-18 10:47 39.246144 -121.157866 71 11824ft 120kts
08-Nov-18 10:48 39.255115 -121.112462 71 11661ft 135kts
08-Nov-18 10:49 39.264280 -121.065713 71 11668ft 133kts
08-Nov-18 10:50 39.272795 -121.022073 71 11978ft 117kts
08-Nov-18 10:51 39.281228 -120.979114 71 12002ft 129kts
08-Nov-18 10:52 39.290126 -120.933412 71 12022ft 132kts
08-Nov-18 10:53 39.299312 -120.886202 71 12028ft 141kts
08-Nov-18 10:54 39.308974 -120.836359 72 12023ft 140kts
08-Nov-18 10:55 39.318305 -120.788382 71 12025ft 136kts
08-Nov-18 10:56 39.327433 -120.741156 72 12023ft 135kts
08-Nov-18 10:57 39.336497 -120.694058 72 12021ft 134kts
08-Nov-18 10:58 39.345553 -120.647173 72 12031ft 134kts
08-Nov-18 10:59 39.354498 -120.600331 72 12040ft 133kts
08-Nov-18 11:00 39.363400 -120.553976 72 12059ft 132kts
08-Nov-18 11:01 39.372265 -120.507537 72 12084ft 132kts
08-Nov-18 11:02 39.381071 -120.461403 72 12111ft 132kts
08-Nov-18 11:03 39.389833 -120.415331 72 12140ft 132kts
08-Nov-18 11:04 39.398571 -120.369200 72 12164ft 132kts
08-Nov-18 11:05 39.407293 -120.323082 72 12185ft 131kts
08-Nov-18 11:06 39.415989 -120.277055 72 12201ft 131kts
08-Nov-18 11:07 39.424640 -120.231012 72 12210ft 131kts
08-Nov-18 11:08 39.433309 -120.184898 73 12216ft 132kts
08-Nov-18 11:09 39.454209 -120.149600 33 12115ft 138kts
08-Nov-18 11:10 39.488237 -120.123684 34 11823ft 144kts
08-Nov-18 11:11 39.523147 -120.097294 33 11559ft 146kts
08-Nov-18 11:12 39.558480 -120.070616 34 11310ft 147kts
08-Nov-18 11:13 39.593075 -120.044449 34 11265ft 140kts
08-Nov-18 11:14 39.626248 -120.019328 34 11268ft 137kts
08-Nov-18 11:15 39.660333 -119.993425 34 11032ft 148kts
08-Nov-18 11:16 39.695317 -119.966897 34 10975ft 142kts
08-Nov-18 11:17 39.729237 -119.941143 33 10980ft 140kts
08-Nov-18 11:18 39.762693 -119.915666 34 10979ft 139kts
08-Nov-18 11:19 39.796140 -119.890198 34 10980ft 139kts
08-Nov-18 11:20 39.816867 -119.853183 95 10722ft 149kts
08-Nov-18 11:21 39.812640 -119.795370 94 9818ft 167kts
08-Nov-18 11:22 39.775755 -119.769060 178 9115ft 175kts
08-Nov-18 11:23 39.728233 -119.768759 177 8486ft 170kts
08-Nov-18 11:24 39.680214 -119.768789 179 7749ft 172kts
08-Nov-18 11:25 39.634209 -119.768868 180 6983ft 135kts
08-Nov-18 11:26 39.602895 -119.768943 177 6329ft 111kts
08-Nov-18 11:27 39.571760 -119.769053 177 5695ft 112kts
08-Nov-18 11:28 39.540528 -119.769132 177 5064ft 116kts
08-Nov-18 11:29 39.510753 -119.769249 179 4427ft 84kts
08-Nov-18 11:30 39.503725 -119.768697 102 4418ft 0kts
08-Nov-18 11:31 39.503603 -119.766140 99 4418ft 3kts
08-Nov-18 11:32 39.503293 -119.765815 163 4418ft 0kts
08-Nov-18 11:33 39.501825 -119.764252 86 4418ft 0kts
08-Nov-18 11:34 39.501825 -119.764252 86 4418ft 0kts
08-Nov-18 11:35 39.501825 -119.764252 86 4418ft 0kts
08-Nov-18 11:36 39.501825 -119.764252 86 4418ft 0kts
08-Nov-18 11:37 39.501825 -119.764252 86 4418ft 0kts
08-Nov-18 11:38 39.501825 -119.764252 86 4418ft 0kts
08-Nov-18 11:39 39.501825 -119.764252 86 4418ft 0kts
08-Nov-18 11:40 39.501825 -119.764252 86 4418ft 0kts
08-Nov-18 11:41 39.501825 -119.764252 86 4418ft 0kts
08-Nov-18 11:42 39.501825 -119.764252 86 4418ft 0kts

Navigation Log

Ident Type
Flight plan parsing failed, navigation log unavailable